Time;durP1;ratioP1;P1;durP2;ratioP2;P2;SDS_P1;SDS_P2;PMS_P1;PMS_P2;Temp;Humidity;BMP_temperature;BMP_pressure;BME280_temperature;BME280_humidity;BME280_pressure;Samples;Min_cycle;Max_cycle;Signal;HPM_P1;HPM_P2
2022/05/06 00:02:07;;;;;;;;;;;13.50;99.90;;;;;;4969063;28;19934;-80
2022/05/06 00:04:34;;;;;;;;;;;13.50;99.90;;;;;;4969159;28;19966;-80
2022/05/06 00:07:02;;;;;;;;;;;13.50;99.90;;;;;;4971645;28;20822;-80
2022/05/06 00:09:29;;;;;;;;;;;13.40;99.90;;;;;;4971881;28;20068;-81
2022/05/06 00:11:56;;;;;;;;;;;13.40;99.90;;;;;;4974692;28;20402;-81
2022/05/06 00:14:23;;;;;;;;;;;13.40;99.90;;;;;;4976449;28;19926;-80
2022/05/06 00:16:51;;;;;;;;;;;13.40;99.90;;;;;;4974756;28;19981;-80
2022/05/06 00:19:18;;;;;;;;;;;13.40;99.90;;;;;;4972648;28;19935;-81
2022/05/06 00:21:45;;;;;;;;;;;13.40;99.90;;;;;;4970900;28;19938;-80
2022/05/06 00:24:13;;;;;;;;;;;13.40;99.90;;;;;;4970734;28;19926;-80
2022/05/06 00:26:41;;;;;;;;;;;13.40;99.90;;;;;;4973324;28;19941;-81
2022/05/06 00:29:09;;;;;;;;;;;13.40;99.90;;;;;;4956130;28;19945;-81
2022/05/06 00:31:36;;;;;;;;;;;13.40;99.90;;;;;;4969419;28;19997;-80
2022/05/06 00:34:08;;;;;;;;;;;13.40;99.90;;;;;;4970097;28;19941;-81
2022/05/06 00:36:36;;;;;;;;;;;13.30;99.90;;;;;;4974612;28;19937;-81
2022/05/06 00:39:03;;;;;;;;;;;13.30;99.90;;;;;;4969760;28;20049;-80
2022/05/06 00:41:35;;;;;;;;;;;13.30;99.90;;;;;;4954214;28;19969;-81
2022/05/06 00:44:02;;;;;;;;;;;13.30;99.90;;;;;;4969659;28;19949;-81
2022/05/06 00:46:29;;;;;;;;;;;13.30;99.90;;;;;;4955625;28;19949;-81
2022/05/06 00:48:56;;;;;;;;;;;13.30;99.90;;;;;;4972049;28;20008;-81
2022/05/06 00:51:24;;;;;;;;;;;13.30;99.90;;;;;;4959585;28;20431;-80
2022/05/06 00:53:54;;;;;;;;;;;13.30;99.90;;;;;;4958604;28;19985;-81
2022/05/06 00:56:24;;;;;;;;;;;13.30;99.90;;;;;;4981005;28;19973;-80
2022/05/06 00:58:53;;;;;;;;;;;13.30;99.90;;;;;;4977611;28;19934;-81
2022/05/06 01:01:20;;;;;;;;;;;13.30;99.90;;;;;;4975798;28;19980;-81
2022/05/06 01:03:48;;;;;;;;;;;13.20;99.90;;;;;;4970298;28;19937;-81
2022/05/06 01:06:15;;;;;;;;;;;13.20;99.90;;;;;;4979501;28;19930;-81
2022/05/06 01:08:47;;;;;;;;;;;13.20;99.90;;;;;;4977839;28;20017;-82
2022/05/06 01:11:15;;;;;;;;;;;13.20;99.90;;;;;;4961051;28;19957;-81
2022/05/06 01:13:44;;;;;;;;;;;13.20;99.90;;;;;;4959305;28;20393;-81
2022/05/06 01:16:17;;;;;;;;;;;13.20;99.90;;;;;;4974995;28;20545;-81
2022/05/06 01:18:49;;;;;;;;;;;13.20;99.90;;;;;;4958034;28;20344;-81
2022/05/06 01:21:20;;;;;;;;;;;13.20;99.90;;;;;;4969027;28;19934;-81
2022/05/06 01:23:48;;;;;;;;;;;13.20;99.90;;;;;;4971130;28;20348;-81
2022/05/06 01:26:15;;;;;;;;;;;13.10;99.90;;;;;;4976647;28;20380;-81
2022/05/06 01:28:42;;;;;;;;;;;13.10;99.90;;;;;;4973517;28;19938;-81
2022/05/06 01:31:11;;;;;;;;;;;13.10;99.90;;;;;;4960893;28;19926;-81
2022/05/06 01:33:38;;;;;;;;;;;13.10;99.90;;;;;;4970095;28;20393;-82
2022/05/06 01:36:06;;;;;;;;;;;13.10;99.90;;;;;;4977085;28;19926;-81
2022/05/06 01:38:37;;;;;;;;;;;13.10;99.90;;;;;;4951046;28;19927;-82
2022/05/06 01:41:08;;;;;;;;;;;13.10;99.90;;;;;;4972927;28;19926;-82
2022/05/06 01:43:44;;;;;;;;;;;13.10;99.90;;;;;;4971299;28;19977;-82
2022/05/06 01:46:14;;;;;;;;;;;13.10;99.90;;;;;;4975293;28;19934;-81
2022/05/06 01:48:45;;;;;;;;;;;13.10;99.90;;;;;;4969923;28;19926;-82
2022/05/06 01:51:15;;;;;;;;;;;13.10;99.90;;;;;;4956571;28;20710;-81
2022/05/06 01:53:43;;;;;;;;;;;13.00;99.90;;;;;;4970617;28;19931;-81
2022/05/06 01:56:11;;;;;;;;;;;13.10;99.90;;;;;;4971166;28;19932;-81
2022/05/06 01:58:42;;;;;;;;;;;13.00;99.90;;;;;;4972218;28;19934;-82
2022/05/06 02:01:11;;;;;;;;;;;13.00;99.90;;;;;;4970550;28;20410;-82
2022/05/06 02:06:28;;;;;;;;;;;13.00;99.90;;;;;;4968245;28;19929;-82
2022/05/06 02:09:05;;;;;;;;;;;13.00;99.90;;;;;;4971158;28;19930;-81
2022/05/06 02:11:42;;;;;;;;;;;13.00;99.90;;;;;;4967688;28;19926;-81
2022/05/06 02:14:09;;;;;;;;;;;13.00;99.90;;;;;;4967982;28;19968;-82
2022/05/06 02:16:51;;;;;;;;;;;13.00;99.90;;;;;;4972417;28;19926;-82
2022/05/06 02:19:42;;;;;;;;;;;13.00;99.90;;;;;;4950362;28;20692;-82
2022/05/06 02:22:29;;;;;;;;;;;13.00;99.90;;;;;;4968271;28;19937;-82
2022/05/06 02:25:19;;;;;;;;;;;12.90;99.90;;;;;;4959065;28;19927;-82
2022/05/06 02:28:08;;;;;;;;;;;12.90;99.90;;;;;;4969675;28;20367;-81
2022/05/06 02:33:24;;;;;;;;;;;13.00;99.90;;;;;;4971263;28;19929;-81
2022/05/06 02:36:14;;;;;;;;;;;12.90;99.90;;;;;;4969234;28;19930;-82
2022/05/06 02:38:41;;;;;;;;;;;12.90;99.90;;;;;;4966467;28;20071;-81
2022/05/06 02:41:08;;;;;;;;;;;12.90;99.90;;;;;;4964908;28;19933;-81
2022/05/06 02:43:49;;;;;;;;;;;12.90;99.90;;;;;;4967798;28;19933;-81
2022/05/06 02:46:17;;;;;;;;;;;12.90;99.90;;;;;;4951593;28;19934;-82
2022/05/06 02:48:44;;;;;;;;;;;12.90;99.90;;;;;;4971504;28;19930;-82
2022/05/06 02:51:13;;;;;;;;;;;12.90;99.90;;;;;;4969971;28;19926;-82
2022/05/06 02:53:42;;;;;;;;;;;12.80;99.90;;;;;;4954799;28;19934;-82
2022/05/06 02:56:10;;;;;;;;;;;12.80;99.90;;;;;;4954269;28;19966;-82
2022/05/06 02:58:46;;;;;;;;;;;12.80;99.90;;;;;;4954363;28;19938;-82
2022/05/06 03:01:15;;;;;;;;;;;12.80;99.90;;;;;;4952559;28;20955;-82
2022/05/06 03:03:45;;;;;;;;;;;12.80;99.90;;;;;;4963462;28;20429;-82
2022/05/06 03:06:17;;;;;;;;;;;12.90;99.90;;;;;;4970247;28;19930;-82
2022/05/06 03:08:45;;;;;;;;;;;12.80;99.90;;;;;;4968221;28;19934;-82
2022/05/06 03:11:15;;;;;;;;;;;12.80;99.90;;;;;;4971900;28;19941;-81
2022/05/06 03:13:50;;;;;;;;;;;12.80;99.90;;;;;;4965739;28;20372;-82
2022/05/06 03:16:21;;;;;;;;;;;12.80;99.90;;;;;;4968508;28;19926;-81
2022/05/06 03:18:49;;;;;;;;;;;12.80;99.90;;;;;;4967509;28;19926;-82
2022/05/06 03:21:16;;;;;;;;;;;12.70;99.90;;;;;;4971396;28;19927;-82
2022/05/06 03:23:44;;;;;;;;;;;12.80;99.90;;;;;;4948981;28;19969;-82
2022/05/06 03:26:11;;;;;;;;;;;12.70;99.90;;;;;;5036211;23;19944;-77
2022/05/06 03:28:38;;;;;;;;;;;12.70;99.90;;;;;;4975956;28;19934;-77
2022/05/06 03:31:06;;;;;;;;;;;12.70;99.90;;;;;;4983414;28;19964;-77
2022/05/06 03:33:41;;;;;;;;;;;12.70;99.90;;;;;;4982322;28;19925;-77
2022/05/06 03:36:16;;;;;;;;;;;12.70;99.90;;;;;;4984678;28;19936;-77
2022/05/06 03:38:56;;;;;;;;;;;12.70;99.90;;;;;;4982122;28;19933;-77
2022/05/06 03:41:26;;;;;;;;;;;12.70;99.90;;;;;;4981180;28;20285;-77
2022/05/06 03:43:53;;;;;;;;;;;12.70;99.90;;;;;;4980929;28;19933;-76
2022/05/06 03:46:23;;;;;;;;;;;12.70;99.90;;;;;;4982770;28;19926;-76
2022/05/06 03:48:53;;;;;;;;;;;12.60;99.90;;;;;;4985395;28;21397;-77
2022/05/06 03:51:22;;;;;;;;;;;12.70;99.90;;;;;;4981960;28;19957;-77
2022/05/06 03:53:53;;;;;;;;;;;12.70;99.90;;;;;;4982096;28;19921;-77
2022/05/06 03:56:22;;;;;;;;;;;12.60;99.90;;;;;;4986130;28;19929;-76
2022/05/06 03:58:51;;;;;;;;;;;12.60;99.90;;;;;;4983112;28;20400;-77
2022/05/06 04:01:19;;;;;;;;;;;12.60;99.90;;;;;;4973061;28;19976;-77
2022/05/06 04:03:50;;;;;;;;;;;12.60;99.90;;;;;;4990108;28;19973;-77
2022/05/06 04:06:20;;;;;;;;;;;12.60;99.90;;;;;;5003555;28;19972;-77
2022/05/06 04:08:54;;;;;;;;;;;12.60;99.90;;;;;;4990485;28;19932;-77
2022/05/06 04:11:21;;;;;;;;;;;12.60;99.90;;;;;;4987056;28;19926;-77
2022/05/06 04:13:54;;;;;;;;;;;12.60;99.90;;;;;;4988477;28;20017;-78
2022/05/06 04:16:24;;;;;;;;;;;12.60;99.90;;;;;;4997235;28;20395;-78
2022/05/06 04:18:52;;;;;;;;;;;12.60;99.90;;;;;;4991667;28;19936;-77
2022/05/06 04:24:07;;;;;;;;;;;12.60;99.90;;;;;;4985547;28;19940;-77
2022/05/06 04:26:35;;;;;;;;;;;12.60;99.90;;;;;;4991357;28;20024;-77
2022/05/06 04:29:02;;;;;;;;;;;12.60;99.90;;;;;;5001891;28;19972;-77
2022/05/06 04:31:32;;;;;;;;;;;12.50;99.90;;;;;;4989282;28;19929;-78
2022/05/06 04:34:03;;;;;;;;;;;12.50;99.90;;;;;;4987269;28;20289;-77
2022/05/06 04:36:40;;;;;;;;;;;12.50;99.90;;;;;;4982351;28;19929;-78
2022/05/06 04:39:08;;;;;;;;;;;12.50;99.90;;;;;;4981385;28;19979;-78
2022/05/06 04:41:45;;;;;;;;;;;12.50;99.90;;;;;;5000786;28;19934;-80
2022/05/06 04:44:13;;;;;;;;;;;12.50;99.90;;;;;;4982984;28;20574;-79
2022/05/06 04:46:41;;;;;;;;;;;12.50;99.90;;;;;;4987210;28;20367;-79
2022/05/06 04:49:08;;;;;;;;;;;12.50;99.90;;;;;;4985371;28;19941;-79
2022/05/06 04:51:37;;;;;;;;;;;12.50;99.90;;;;;;4989691;28;19940;-78
2022/05/06 04:54:07;;;;;;;;;;;12.50;99.90;;;;;;4988502;28;19952;-79
2022/05/06 04:56:34;;;;;;;;;;;12.50;99.90;;;;;;4988530;28;19925;-78
2022/05/06 04:59:10;;;;;;;;;;;12.50;99.90;;;;;;4985118;28;20011;-80
2022/05/06 05:01:44;;;;;;;;;;;12.50;99.90;;;;;;4988065;28;19992;-79
2022/05/06 05:04:11;;;;;;;;;;;12.40;99.90;;;;;;4990053;28;19937;-77
2022/05/06 05:06:42;;;;;;;;;;;12.40;99.90;;;;;;4982378;28;19926;-78
2022/05/06 05:09:13;;;;;;;;;;;12.40;99.90;;;;;;4984805;28;20411;-78
2022/05/06 05:11:42;;;;;;;;;;;12.40;99.90;;;;;;4980796;28;20354;-78
2022/05/06 05:14:17;;;;;;;;;;;12.40;99.90;;;;;;4988429;28;20316;-78
2022/05/06 05:16:45;;;;;;;;;;;12.40;99.90;;;;;;4989296;28;19932;-78
2022/05/06 05:19:13;;;;;;;;;;;12.40;99.90;;;;;;4985513;28;20021;-81
2022/05/06 05:21:48;;;;;;;;;;;12.40;99.90;;;;;;4985224;28;20392;-77
2022/05/06 05:24:16;;;;;;;;;;;12.40;99.90;;;;;;4984603;28;20040;-77
2022/05/06 05:26:43;;;;;;;;;;;12.40;99.90;;;;;;4987509;28;19933;-77
2022/05/06 05:29:11;;;;;;;;;;;12.40;99.90;;;;;;4989697;28;19975;-76
2022/05/06 05:31:38;;;;;;;;;;;12.40;99.90;;;;;;4987099;28;20000;-77
2022/05/06 05:34:05;;;;;;;;;;;12.40;99.90;;;;;;4994682;28;19929;-77
2022/05/06 05:36:33;;;;;;;;;;;12.40;99.90;;;;;;4997210;28;19925;-77
2022/05/06 05:39:01;;;;;;;;;;;12.30;99.90;;;;;;4994010;28;19933;-77
2022/05/06 05:41:29;;;;;;;;;;;12.30;99.90;;;;;;5010841;28;19929;-77
2022/05/06 05:49:32;;;;;;;;;;;12.30;99.90;;;;;;4987986;28;19925;-76
2022/05/06 05:51:59;;;;;;;;;;;12.30;99.90;;;;;;4990002;28;20383;-76
2022/05/06 05:54:28;;;;;;;;;;;12.30;99.90;;;;;;4985639;28;19969;-77
2022/05/06 05:56:56;;;;;;;;;;;12.30;99.90;;;;;;4989071;28;19944;-77
2022/05/06 05:59:23;;;;;;;;;;;12.30;99.90;;;;;;4982260;28;19948;-76
2022/05/06 06:01:50;;;;;;;;;;;12.30;99.90;;;;;;4992485;28;19929;-76
2022/05/06 06:04:17;;;;;;;;;;;12.30;99.90;;;;;;4987216;28;19940;-76
2022/05/06 06:06:46;;;;;;;;;;;12.30;99.90;;;;;;4993127;28;20398;-76
2022/05/06 06:09:17;;;;;;;;;;;12.30;99.90;;;;;;4984417;28;20713;-76
2022/05/06 06:11:47;;;;;;;;;;;12.30;99.90;;;;;;4986806;28;21259;-75
2022/05/06 06:14:17;;;;;;;;;;;12.30;99.90;;;;;;4989111;28;20424;-77
2022/05/06 06:16:45;;;;;;;;;;;12.20;99.90;;;;;;4985610;28;21068;-75
2022/05/06 06:19:12;;;;;;;;;;;12.20;99.90;;;;;;4987378;28;20368;-76
2022/05/06 06:21:44;;;;;;;;;;;12.30;99.90;;;;;;4988208;28;19964;-76
2022/05/06 06:24:13;;;;;;;;;;;12.30;99.90;;;;;;4985048;28;20017;-77
2022/05/06 06:26:41;;;;;;;;;;;12.30;99.90;;;;;;4986770;28;20626;-76
2022/05/06 06:29:15;;;;;;;;;;;12.30;99.90;;;;;;4984103;28;19933;-76
2022/05/06 06:31:43;;;;;;;;;;;12.30;99.90;;;;;;4995251;28;20372;-75
2022/05/06 06:34:10;;;;;;;;;;;12.30;99.90;;;;;;4983413;28;19925;-77
2022/05/06 06:36:39;;;;;;;;;;;12.20;99.90;;;;;;4989212;28;20013;-77
2022/05/06 06:39:07;;;;;;;;;;;12.30;99.90;;;;;;4998887;28;19930;-76
2022/05/06 06:41:38;;;;;;;;;;;12.30;99.90;;;;;;4988593;28;19925;-76
2022/05/06 06:44:05;;;;;;;;;;;12.30;99.90;;;;;;5004677;28;19929;-76
2022/05/06 06:47:08;;;;;;;;;;;12.30;99.90;;;;;;5000369;28;20293;-76
2022/05/06 06:49:55;;;;;;;;;;;12.20;99.90;;;;;;4980748;28;19929;-76
2022/05/06 06:52:29;;;;;;;;;;;12.20;99.90;;;;;;4991261;28;19951;-77
2022/05/06 06:54:57;;;;;;;;;;;12.20;99.90;;;;;;5001473;28;19972;-77
2022/05/06 06:57:25;;;;;;;;;;;12.20;99.90;;;;;;4999586;28;19934;-77
2022/05/06 06:59:52;;;;;;;;;;;12.30;99.90;;;;;;5004903;28;19925;-77
2022/05/06 07:02:20;;;;;;;;;;;12.20;99.90;;;;;;5002704;28;19926;-76
2022/05/06 07:04:47;;;;;;;;;;;12.20;99.90;;;;;;5001625;28;19929;-77
2022/05/06 07:12:43;;;;;;;;;;;12.20;99.90;;;;;;5001308;28;20315;-75
2022/05/06 07:15:10;;;;;;;;;;;12.20;99.90;;;;;;4986509;28;20388;-76
2022/05/06 07:17:39;;;;;;;;;;;12.20;99.90;;;;;;5002367;28;20423;-76
2022/05/06 07:20:06;;;;;;;;;;;12.20;99.90;;;;;;4984459;28;19930;-75
2022/05/06 07:22:33;;;;;;;;;;;12.20;99.90;;;;;;5003176;28;19988;-74
2022/05/06 07:25:00;;;;;;;;;;;12.30;99.90;;;;;;4984458;28;19956;-76
2022/05/06 07:27:27;;;;;;;;;;;12.20;99.90;;;;;;5010185;28;19934;-76
2022/05/06 07:29:53;;;;;;;;;;;12.20;99.90;;;;;;5000183;28;19930;-76
2022/05/06 07:32:20;;;;;;;;;;;12.20;99.90;;;;;;5002074;28;19940;-76
2022/05/06 07:34:49;;;;;;;;;;;12.20;99.90;;;;;;5003631;28;19934;-75
2022/05/06 07:37:16;;;;;;;;;;;12.30;99.90;;;;;;4993089;28;19936;-76
2022/05/06 07:39:43;;;;;;;;;;;12.30;99.90;;;;;;5000165;28;19925;-76
2022/05/06 07:42:12;;;;;;;;;;;12.30;99.90;;;;;;4981664;28;19932;-77
2022/05/06 07:44:41;;;;;;;;;;;12.30;99.90;;;;;;4987803;28;19988;-77
2022/05/06 07:47:08;;;;;;;;;;;12.30;99.90;;;;;;5005764;28;19933;-77
2022/05/06 07:49:35;;;;;;;;;;;12.20;99.90;;;;;;4991207;28;20394;-77
2022/05/06 07:52:04;;;;;;;;;;;12.30;99.90;;;;;;5003339;28;19926;-77
2022/05/06 07:54:31;;;;;;;;;;;12.30;99.90;;;;;;4997804;28;19930;-77
2022/05/06 07:56:58;;;;;;;;;;;12.20;99.90;;;;;;5004001;28;19925;-77
2022/05/06 07:59:25;;;;;;;;;;;12.30;99.90;;;;;;5002104;28;19934;-78
2022/05/06 08:04:37;;;;;;;;;;;12.30;99.90;;;;;;4995951;28;20020;-77
2022/05/06 08:07:06;;;;;;;;;;;12.30;99.90;;;;;;4997725;28;20027;-77
2022/05/06 08:09:33;;;;;;;;;;;12.30;99.90;;;;;;5000472;28;20338;-77
2022/05/06 08:12:00;;;;;;;;;;;12.30;99.90;;;;;;5002632;28;19937;-77
2022/05/06 08:14:28;;;;;;;;;;;12.30;99.90;;;;;;4998588;28;19932;-77
2022/05/06 08:16:55;;;;;;;;;;;12.30;99.90;;;;;;5003609;28;20391;-77
2022/05/06 08:19:22;;;;;;;;;;;12.30;99.90;;;;;;4995452;28;19929;-76
2022/05/06 08:21:49;;;;;;;;;;;12.30;99.90;;;;;;5001572;28;19934;-77
2022/05/06 08:24:17;;;;;;;;;;;12.30;99.90;;;;;;5007063;28;19929;-77
2022/05/06 08:26:45;;;;;;;;;;;12.30;99.90;;;;;;4985127;28;19930;-78
2022/05/06 08:29:12;;;;;;;;;;;12.40;99.90;;;;;;5004597;28;20416;-77
2022/05/06 08:31:39;;;;;;;;;;;12.40;99.90;;;;;;4978728;28;19964;-77
2022/05/06 08:34:08;;;;;;;;;;;12.40;99.90;;;;;;4999698;28;19933;-77
2022/05/06 08:36:36;;;;;;;;;;;12.40;99.90;;;;;;5003900;28;19925;-77
2022/05/06 08:39:03;;;;;;;;;;;12.40;99.90;;;;;;4992633;28;19930;-76
2022/05/06 08:41:31;;;;;;;;;;;12.40;99.90;;;;;;4999569;28;19944;-78
2022/05/06 08:50:50;;;;;;;;;;;12.40;99.90;;;;;;4985970;28;19936;-77
2022/05/06 08:52:32;;;;;;;;;;;12.40;99.90;;;;;;4959995;28;21899;-77
2022/05/06 08:55:00;;;;;;;;;;;12.50;99.90;;;;;;4979800;28;19930;-77
2022/05/06 08:57:30;;;;;;;;;;;12.50;99.90;;;;;;4997216;28;20021;-77
2022/05/06 08:59:57;;;;;;;;;;;12.50;99.90;;;;;;4993972;28;19933;-78
2022/05/06 09:02:24;;;;;;;;;;;12.50;99.90;;;;;;5001671;28;19929;-77
2022/05/06 09:04:51;;;;;;;;;;;12.50;99.90;;;;;;4990624;28;20470;-77
2022/05/06 09:07:19;;;;;;;;;;;12.50;99.90;;;;;;4993168;28;20689;-77
2022/05/06 09:10:05;;;;;;;;;;;12.50;99.90;;;;;;4994243;28;19933;-77
2022/05/06 09:12:42;;;;;;;;;;;12.50;99.90;;;;;;4990232;28;19925;-77
2022/05/06 09:17:55;;;;;;;;;;;12.50;99.90;;;;;;4994385;28;19925;-77
2022/05/06 09:20:22;;;;;;;;;;;12.60;99.90;;;;;;4983629;28;19937;-78
2022/05/06 09:22:50;;;;;;;;;;;12.60;99.90;;;;;;5007077;28;20535;-80
2022/05/06 09:25:36;;;;;;;;;;;12.60;99.90;;;;;;5010626;28;19933;-78
2022/05/06 09:28:05;;;;;;;;;;;12.60;99.90;;;;;;4982752;28;19933;-78
2022/05/06 09:30:33;;;;;;;;;;;12.60;99.90;;;;;;5001537;28;19925;-77
2022/05/06 09:33:00;;;;;;;;;;;12.60;99.90;;;;;;5006789;28;19937;-77
2022/05/06 09:35:27;;;;;;;;;;;12.60;99.90;;;;;;5004635;28;19926;-77
2022/05/06 09:37:55;;;;;;;;;;;12.60;99.90;;;;;;5006083;28;19936;-78
2022/05/06 09:40:23;;;;;;;;;;;12.70;99.90;;;;;;4984365;28;19940;-77
2022/05/06 09:42:57;;;;;;;;;;;12.70;99.90;;;;;;5000451;28;19960;-78
2022/05/06 09:45:30;;;;;;;;;;;12.70;99.90;;;;;;5004929;28;19983;-77
2022/05/06 09:47:58;;;;;;;;;;;12.70;99.90;;;;;;4986502;28;19933;-77
2022/05/06 09:50:32;;;;;;;;;;;12.70;99.90;;;;;;4987555;28;19931;-77
2022/05/06 09:52:59;;;;;;;;;;;12.80;99.90;;;;;;4986961;28;19934;-78
2022/05/06 09:55:26;;;;;;;;;;;12.80;99.90;;;;;;5003092;28;20310;-77
2022/05/06 09:57:53;;;;;;;;;;;12.80;99.90;;;;;;5005725;28;19976;-78
2022/05/06 10:00:20;;;;;;;;;;;12.80;99.90;;;;;;5094062;22;19930;-78
2022/05/06 10:02:48;;;;;;;;;;;12.80;99.90;;;;;;5000575;28;19926;-79
2022/05/06 10:05:15;;;;;;;;;;;12.80;99.90;;;;;;4986609;28;19933;-78
2022/05/06 10:07:43;;;;;;;;;;;12.80;99.90;;;;;;5003729;28;20363;-78
2022/05/06 10:10:16;;;;;;;;;;;12.80;99.90;;;;;;5000668;28;19930;-78
2022/05/06 10:12:45;;;;;;;;;;;12.90;99.90;;;;;;4981649;28;19932;-77
2022/05/06 10:15:13;;;;;;;;;;;12.90;99.90;;;;;;5006448;28;19930;-78
2022/05/06 10:17:52;;;;;;;;;;;12.90;99.90;;;;;;5007300;28;19949;-78
2022/05/06 10:20:37;;;;;;;;;;;12.90;99.90;;;;;;5006749;28;20024;-78
2022/05/06 10:23:07;;;;;;;;;;;12.90;99.90;;;;;;4987564;28;19929;-78
2022/05/06 10:25:48;;;;;;;;;;;12.90;99.90;;;;;;5004782;28;19972;-78
2022/05/06 10:34:23;;;;;;;;;;;13.00;99.90;;;;;;4988382;28;19921;-78
2022/05/06 10:36:51;;;;;;;;;;;13.00;99.90;;;;;;5002743;28;19933;-78
2022/05/06 10:39:21;;;;;;;;;;;13.10;99.90;;;;;;5003449;28;19936;-78
2022/05/06 10:42:01;;;;;;;;;;;13.00;99.90;;;;;;4999601;28;19948;-78
2022/05/06 10:44:32;;;;;;;;;;;13.10;99.90;;;;;;5001723;28;19955;-79
2022/05/06 10:46:58;;;;;;;;;;;13.10;99.90;;;;;;5008253;28;19940;-78
2022/05/06 10:49:52;;;;;;;;;;;13.10;99.90;;;;;;5006087;28;19968;-78
2022/05/06 10:52:38;;;;;;;;;;;13.10;99.90;;;;;;4987077;28;19929;-80
2022/05/06 10:55:06;;;;;;;;;;;13.20;99.90;;;;;;4986085;28;19930;-78
2022/05/06 10:57:44;;;;;;;;;;;13.20;99.90;;;;;;5003244;28;19930;-79
2022/05/06 11:00:12;;;;;;;;;;;13.20;99.90;;;;;;5001672;28;20404;-78
2022/05/06 11:02:40;;;;;;;;;;;13.20;99.90;;;;;;5005240;28;19999;-78
2022/05/06 11:05:08;;;;;;;;;;;13.20;99.90;;;;;;5000058;28;20462;-78
2022/05/06 11:07:37;;;;;;;;;;;13.20;99.90;;;;;;5005079;28;19926;-78
2022/05/06 11:10:09;;;;;;;;;;;13.30;99.90;;;;;;5007698;28;19940;-78
2022/05/06 11:12:37;;;;;;;;;;;13.30;99.90;;;;;;5005662;28;20347;-78
2022/05/06 11:15:05;;;;;;;;;;;13.30;99.90;;;;;;4988539;28;19929;-78
2022/05/06 11:17:33;;;;;;;;;;;13.30;99.90;;;;;;5001345;28;19925;-78
2022/05/06 11:20:00;;;;;;;;;;;13.40;99.90;;;;;;4985355;28;20845;-78
2022/05/06 11:22:27;;;;;;;;;;;13.40;99.90;;;;;;4998216;28;19969;-78
2022/05/06 11:24:56;;;;;;;;;;;13.40;99.90;;;;;;5000659;28;20323;-78
2022/05/06 11:27:24;;;;;;;;;;;13.40;99.90;;;;;;4982689;28;20012;-78
2022/05/06 11:29:52;;;;;;;;;;;13.40;99.90;;;;;;5001832;28;19930;-78
2022/05/06 11:32:19;;;;;;;;;;;13.40;99.90;;;;;;4993049;28;19961;-78
2022/05/06 11:34:48;;;;;;;;;;;13.40;99.90;;;;;;4998850;28;19933;-78
2022/05/06 11:37:21;;;;;;;;;;;13.40;99.90;;;;;;5007875;28;19929;-78
2022/05/06 11:39:48;;;;;;;;;;;13.50;99.90;;;;;;4998735;28;19932;-79
2022/05/06 11:42:19;;;;;;;;;;;13.50;99.90;;;;;;4991971;28;19925;-78
2022/05/06 11:47:41;;;;;;;;;;;13.50;99.90;;;;;;4996161;28;19932;-78
2022/05/06 11:50:08;;;;;;;;;;;13.50;99.90;;;;;;4986636;28;19934;-78
2022/05/06 11:52:39;;;;;;;;;;;13.60;99.90;;;;;;4995305;28;19939;-78
2022/05/06 11:55:07;;;;;;;;;;;13.60;99.90;;;;;;4991677;28;19926;-78
2022/05/06 11:57:36;;;;;;;;;;;13.60;99.90;;;;;;4998321;28;19929;-79
2022/05/06 12:00:05;;;;;;;;;;;13.60;99.90;;;;;;4998105;28;20028;-78
2022/05/06 12:02:47;;;;;;;;;;;13.60;99.90;;;;;;5000499;28;19929;-79
2022/05/06 12:05:14;;;;;;;;;;;13.60;99.90;;;;;;4999742;28;22146;-77
2022/05/06 12:07:41;;;;;;;;;;;13.60;99.90;;;;;;4994009;28;20454;-78
2022/05/06 12:10:09;;;;;;;;;;;13.70;99.90;;;;;;5000928;28;19929;-78
2022/05/06 12:12:51;;;;;;;;;;;13.60;99.90;;;;;;4999334;28;20991;-78
2022/05/06 12:15:19;;;;;;;;;;;13.70;99.90;;;;;;4989857;28;19925;-78
2022/05/06 12:17:47;;;;;;;;;;;13.70;99.90;;;;;;5003008;28;20384;-78
2022/05/06 12:20:32;;;;;;;;;;;13.70;99.90;;;;;;4997108;28;19925;-78
2022/05/06 12:23:00;;;;;;;;;;;13.70;99.90;;;;;;4998797;28;19984;-78
2022/05/06 12:25:27;;;;;;;;;;;13.70;99.90;;;;;;5000930;28;19940;-78
2022/05/06 12:28:04;;;;;;;;;;;13.70;99.90;;;;;;5002641;28;19965;-78
2022/05/06 12:30:32;;;;;;;;;;;13.70;99.90;;;;;;5002452;28;19933;-78
2022/05/06 12:33:03;;;;;;;;;;;13.80;99.90;;;;;;5002210;28;19964;-77
2022/05/06 12:35:30;;;;;;;;;;;13.80;99.90;;;;;;4977148;28;22018;-78
2022/05/06 12:37:58;;;;;;;;;;;13.80;99.90;;;;;;5000230;28;20355;-78
2022/05/06 12:40:34;;;;;;;;;;;13.80;99.90;;;;;;4992682;28;19944;-78
2022/05/06 12:43:03;;;;;;;;;;;13.80;99.90;;;;;;4994663;28;19936;-79
2022/05/06 12:45:31;;;;;;;;;;;13.80;99.90;;;;;;5002787;28;19938;-81
2022/05/06 12:50:43;;;;;;;;;;;13.80;99.90;;;;;;4993752;28;19929;-78
2022/05/06 12:53:10;;;;;;;;;;;13.80;99.90;;;;;;5000362;28;19976;-78
2022/05/06 12:55:37;;;;;;;;;;;13.80;99.90;;;;;;4978855;28;19980;-79
2022/05/06 12:58:04;;;;;;;;;;;13.80;99.90;;;;;;4978674;28;20323;-77
2022/05/06 13:00:33;;;;;;;;;;;13.80;99.90;;;;;;5000223;28;19932;-77
2022/05/06 13:03:00;;;;;;;;;;;13.80;99.90;;;;;;4996831;28;19944;-78
2022/05/06 13:05:28;;;;;;;;;;;13.90;99.90;;;;;;5001223;28;19941;-78
2022/05/06 13:07:56;;;;;;;;;;;13.90;99.90;;;;;;4980529;28;20011;-77
2022/05/06 13:10:23;;;;;;;;;;;13.90;99.90;;;;;;5003127;28;19933;-78
2022/05/06 13:12:50;;;;;;;;;;;13.90;99.90;;;;;;4996026;28;19976;-78
2022/05/06 13:15:16;;;;;;;;;;;13.90;99.90;;;;;;4984821;28;19925;-79
2022/05/06 13:17:45;;;;;;;;;;;13.90;99.90;;;;;;4999822;28;19941;-78
2022/05/06 13:20:12;;;;;;;;;;;13.90;99.90;;;;;;4999540;28;19929;-77
2022/05/06 13:22:40;;;;;;;;;;;13.90;99.90;;;;;;5002187;28;20407;-78
2022/05/06 13:25:07;;;;;;;;;;;13.90;99.90;;;;;;5003608;28;19937;-78
2022/05/06 13:27:34;;;;;;;;;;;13.90;99.90;;;;;;5002217;28;20166;-79
2022/05/06 13:30:01;;;;;;;;;;;14.00;99.90;;;;;;5011626;28;20340;-78
2022/05/06 13:32:28;;;;;;;;;;;14.00;99.90;;;;;;4998656;28;20015;-78
2022/05/06 13:34:56;;;;;;;;;;;14.00;99.90;;;;;;5001501;28;19925;-78
2022/05/06 13:37:23;;;;;;;;;;;14.00;99.90;;;;;;4987471;28;20264;-78
2022/05/06 13:39:50;;;;;;;;;;;14.00;99.90;;;;;;4986592;28;19926;-78
2022/05/06 13:42:17;;;;;;;;;;;14.00;99.90;;;;;;5001536;28;19934;-78
2022/05/06 13:44:44;;;;;;;;;;;14.00;99.90;;;;;;5000654;28;20618;-76
2022/05/06 13:47:11;;;;;;;;;;;14.00;99.90;;;;;;5001193;28;19926;-78
2022/05/06 13:49:38;;;;;;;;;;;14.00;99.90;;;;;;5002600;28;19930;-77
2022/05/06 13:52:06;;;;;;;;;;;14.00;99.90;;;;;;5001367;28;19960;-78
2022/05/06 13:54:33;;;;;;;;;;;14.00;99.90;;;;;;4986905;28;20024;-78
2022/05/06 13:59:44;;;;;;;;;;;14.10;99.90;;;;;;4982707;28;20384;-78
2022/05/06 14:02:11;;;;;;;;;;;14.10;99.90;;;;;;5006082;28;20016;-79
2022/05/06 14:04:39;;;;;;;;;;;14.10;99.90;;;;;;5009097;28;19925;-79
2022/05/06 14:07:08;;;;;;;;;;;14.10;99.90;;;;;;4990738;28;19925;-79
2022/05/06 14:09:35;;;;;;;;;;;14.10;99.90;;;;;;4986007;28;19930;-77
2022/05/06 14:12:02;;;;;;;;;;;14.10;99.90;;;;;;5000454;28;20372;-79
2022/05/06 14:14:29;;;;;;;;;;;14.10;99.90;;;;;;5006861;28;19926;-79
2022/05/06 14:16:56;;;;;;;;;;;14.10;99.90;;;;;;5001762;28;20032;-79
2022/05/06 14:19:23;;;;;;;;;;;14.10;99.90;;;;;;4985950;28;20399;-79
2022/05/06 14:21:50;;;;;;;;;;;14.10;99.90;;;;;;5005424;28;20016;-80
2022/05/06 14:24:18;;;;;;;;;;;14.10;99.90;;;;;;5002029;28;19962;-77
2022/05/06 14:26:45;;;;;;;;;;;14.20;99.90;;;;;;5002785;28;19936;-78
2022/05/06 14:29:12;;;;;;;;;;;14.20;99.90;;;;;;5004816;28;19956;-79
2022/05/06 14:31:39;;;;;;;;;;;14.10;99.90;;;;;;5006774;28;19925;-79
2022/05/06 14:34:06;;;;;;;;;;;14.20;99.90;;;;;;5006064;28;19933;-80
2022/05/06 14:36:34;;;;;;;;;;;14.20;99.90;;;;;;5003865;28;20485;-80
2022/05/06 14:39:01;;;;;;;;;;;14.20;99.90;;;;;;4987611;28;19979;-78
2022/05/06 14:41:30;;;;;;;;;;;14.20;99.90;;;;;;5003007;28;19969;-79
2022/05/06 14:43:56;;;;;;;;;;;14.20;99.90;;;;;;5002107;28;19933;-79
2022/05/06 14:46:23;;;;;;;;;;;14.20;99.90;;;;;;5002257;28;20319;-78
2022/05/06 14:48:50;;;;;;;;;;;14.20;99.90;;;;;;4998328;28;19976;-77
2022/05/06 14:51:17;;;;;;;;;;;14.20;99.90;;;;;;4990535;28;19934;-78
2022/05/06 14:53:45;;;;;;;;;;;14.20;99.90;;;;;;4980404;28;19925;-77
2022/05/06 14:56:12;;;;;;;;;;;14.20;99.90;;;;;;5002268;28;20471;-77
2022/05/06 14:58:40;;;;;;;;;;;14.20;99.90;;;;;;4996730;28;19925;-77
2022/05/06 15:01:08;;;;;;;;;;;14.20;99.90;;;;;;5001548;28;19934;-76
2022/05/06 15:03:36;;;;;;;;;;;14.20;99.90;;;;;;5003960;28;19929;-77
2022/05/06 15:06:03;;;;;;;;;;;14.20;99.90;;;;;;5004810;28;19925;-76
2022/05/06 15:08:30;;;;;;;;;;;14.20;99.90;;;;;;5005026;28;19933;-77
2022/05/06 15:10:58;;;;;;;;;;;14.20;99.90;;;;;;4988655;28;19926;-77
2022/05/06 15:13:28;;;;;;;;;;;14.20;99.90;;;;;;4994434;28;19948;-78
2022/05/06 15:15:57;;;;;;;;;;;14.20;99.90;;;;;;5006475;28;19925;-78